createdAt,value
2018-05-26T00:01:05.839Z,16.80
2018-05-26T00:03:32.755Z,16.80
2018-05-26T00:05:59.632Z,16.70
2018-05-26T00:08:26.512Z,16.70
2018-05-26T00:10:53.396Z,16.60
2018-05-26T00:13:20.270Z,16.60
2018-05-26T00:15:47.222Z,16.70
2018-05-26T00:18:14.145Z,16.60
2018-05-26T00:20:41.096Z,16.60
2018-05-26T00:23:07.986Z,16.60
2018-05-26T00:25:34.890Z,16.60
2018-05-26T00:28:01.814Z,16.60
2018-05-26T00:30:28.717Z,16.60
2018-05-26T00:32:55.612Z,16.60
2018-05-26T00:35:22.482Z,16.60
2018-05-26T00:37:50.093Z,16.50
2018-05-26T00:40:16.972Z,16.50
2018-05-26T00:42:43.853Z,16.50
2018-05-26T00:45:10.721Z,16.50
2018-05-26T00:47:37.597Z,16.50
2018-05-26T00:50:04.481Z,16.50
2018-05-26T00:52:31.368Z,16.40
2018-05-26T00:54:58.252Z,16.40
2018-05-26T00:57:25.180Z,16.30
2018-05-26T00:59:52.806Z,16.30
2018-05-26T01:02:19.694Z,16.30
2018-05-26T01:04:46.618Z,16.30
2018-05-26T01:07:13.488Z,16.30
2018-05-26T01:09:41.124Z,16.30
2018-05-26T01:12:08.000Z,16.30
2018-05-26T01:14:34.881Z,16.30
2018-05-26T01:17:01.770Z,16.20
2018-05-26T01:19:28.999Z,16.20
2018-05-26T01:21:55.942Z,16.10
2018-05-26T01:24:22.833Z,16.20
2018-05-26T01:26:49.703Z,16.20
2018-05-26T01:29:16.577Z,16.10
2018-05-26T01:31:43.465Z,16.10
2018-05-26T01:34:10.342Z,16.10
2018-05-26T01:36:37.225Z,16.00
2018-05-26T01:39:04.225Z,16.00
2018-05-26T01:41:31.101Z,16.00
2018-05-26T01:43:57.996Z,16.00
2018-05-26T01:46:24.876Z,16.00
2018-05-26T01:48:51.761Z,16.00
2018-05-26T01:51:19.421Z,16.00
2018-05-26T01:53:46.316Z,16.00
2018-05-26T01:56:13.210Z,15.90
2018-05-26T01:58:40.843Z,16.00
2018-05-26T02:01:07.721Z,16.00
2018-05-26T02:03:35.346Z,16.00
2018-05-26T02:06:02.229Z,16.00
2018-05-26T02:08:29.113Z,16.00
2018-05-26T02:10:55.983Z,16.00
2018-05-26T02:13:22.917Z,15.90
2018-05-26T02:15:49.793Z,15.90
2018-05-26T02:18:17.412Z,16.00
2018-05-26T02:20:44.329Z,16.00
2018-05-26T02:23:11.249Z,16.00
2018-05-26T02:25:38.120Z,16.00
2018-05-26T02:28:05.005Z,16.00
2018-05-26T02:30:31.881Z,15.90
2018-05-26T02:32:58.759Z,15.90
2018-05-26T02:35:25.651Z,16.00
2018-05-26T02:37:52.529Z,16.10
2018-05-26T02:40:19.426Z,16.10
2018-05-26T02:42:46.305Z,16.10
2018-05-26T02:45:13.213Z,16.00
2018-05-26T02:47:40.091Z,16.00
2018-05-26T02:50:06.957Z,16.00
2018-05-26T02:52:33.824Z,15.90
2018-05-26T02:55:00.724Z,15.90
2018-05-26T02:57:27.595Z,15.90
2018-05-26T02:59:54.483Z,15.90
2018-05-26T03:02:22.094Z,16.00
2018-05-26T03:04:55.010Z,16.00
2018-05-26T03:07:27.788Z,16.10
2018-05-26T03:10:00.601Z,16.20
2018-05-26T03:12:34.064Z,16.20
2018-05-26T03:15:01.072Z,16.20
2018-05-26T03:17:34.885Z,16.30
2018-05-26T03:20:01.849Z,16.20
2018-05-26T03:22:28.777Z,16.20
2018-05-26T03:24:55.673Z,16.10
2018-05-26T03:27:23.293Z,16.20
2018-05-26T03:29:50.164Z,16.20
2018-05-26T03:32:17.046Z,16.10
2018-05-26T03:34:43.920Z,16.10
2018-05-26T03:37:10.805Z,16.10
2018-05-26T03:39:37.680Z,16.10
2018-05-26T03:42:04.584Z,16.20
2018-05-26T03:44:31.467Z,16.20
2018-05-26T03:46:58.340Z,16.20
2018-05-26T03:49:25.212Z,16.20
2018-05-26T03:51:52.090Z,16.20
2018-05-26T03:54:19.216Z,16.30
2018-05-26T03:56:57.990Z,16.30
2018-05-26T03:59:36.816Z,16.30
2018-05-26T04:02:03.821Z,16.40
2018-05-26T04:04:31.053Z,16.40
2018-05-26T04:06:57.923Z,16.50
2018-05-26T04:09:24.796Z,16.50
2018-05-26T04:11:52.606Z,16.50
2018-05-26T04:14:19.494Z,16.50
2018-05-26T04:16:46.372Z,16.60
2018-05-26T04:19:13.267Z,16.60
2018-05-26T04:21:40.132Z,16.60
2018-05-26T04:24:07.058Z,16.70
2018-05-26T04:26:33.962Z,16.70
2018-05-26T04:29:00.827Z,16.60
2018-05-26T04:31:27.733Z,16.60
2018-05-26T04:33:54.626Z,16.50
2018-05-26T04:36:21.520Z,16.50
2018-05-26T04:38:48.397Z,16.50
2018-05-26T04:41:16.053Z,16.60
2018-05-26T04:43:42.928Z,16.60
2018-05-26T04:46:09.811Z,16.60
2018-05-26T04:48:37.485Z,16.70
2018-05-26T04:51:04.364Z,16.70
2018-05-26T04:53:31.240Z,16.70
2018-05-26T04:55:58.117Z,16.80
2018-05-26T04:58:24.992Z,16.70
2018-05-26T05:00:51.868Z,16.80
2018-05-26T05:03:18.749Z,16.80
2018-05-26T05:05:45.675Z,16.80
2018-05-26T05:08:12.541Z,16.80
2018-05-26T05:10:39.476Z,16.80
2018-05-26T05:13:06.360Z,16.80
2018-05-26T05:15:33.244Z,16.70
2018-05-26T05:18:00.169Z,16.70
2018-05-26T05:20:27.165Z,16.70
2018-05-26T05:22:54.037Z,16.70
2018-05-26T05:25:21.049Z,16.70
2018-05-26T05:27:47.972Z,16.70
2018-05-26T05:30:14.863Z,16.70
2018-05-26T05:32:42.480Z,16.70
2018-05-26T05:35:09.394Z,16.70
2018-05-26T05:37:37.064Z,16.70
2018-05-26T05:40:03.952Z,16.70
2018-05-26T05:42:30.832Z,16.70
2018-05-26T05:44:57.699Z,16.80
2018-05-26T05:47:24.588Z,16.80
2018-05-26T05:49:52.200Z,16.70
2018-05-26T05:52:19.077Z,16.70
2018-05-26T05:54:45.952Z,16.70
2018-05-26T05:57:13.578Z,16.80
2018-05-26T05:59:40.503Z,16.70
2018-05-26T06:02:07.405Z,16.70
2018-05-26T06:04:34.281Z,16.70
2018-05-26T06:07:01.900Z,16.60
2018-05-26T06:09:28.788Z,16.60
2018-05-26T06:11:55.709Z,16.60
2018-05-26T06:14:22.596Z,16.60
2018-05-26T06:16:49.489Z,16.60
2018-05-26T06:19:16.412Z,16.70
2018-05-26T06:21:43.292Z,16.70
2018-05-26T06:24:10.162Z,16.70
2018-05-26T06:26:37.077Z,16.70
2018-05-26T06:29:03.972Z,16.70
2018-05-26T06:31:30.838Z,16.60
2018-05-26T06:33:58.440Z,16.50
2018-05-26T06:36:25.313Z,16.50
2018-05-26T06:38:52.186Z,16.50
2018-05-26T06:41:19.829Z,16.50
2018-05-26T06:43:46.721Z,16.40
2018-05-26T06:46:13.608Z,16.50
2018-05-26T06:48:40.517Z,16.50
2018-05-26T06:51:07.402Z,16.60
2018-05-26T06:53:35.021Z,16.60
2018-05-26T06:56:01.945Z,16.60
2018-05-26T06:58:28.852Z,16.50
2018-05-26T07:00:55.732Z,16.50
2018-05-26T07:03:22.616Z,16.60
2018-05-26T07:05:49.509Z,16.50
2018-05-26T07:08:16.409Z,16.50
2018-05-26T07:10:43.280Z,16.50
2018-05-26T07:13:10.160Z,16.60
2018-05-26T07:15:37.256Z,16.70
2018-05-26T07:18:04.129Z,16.70
2018-05-26T07:20:31.031Z,16.70
2018-05-26T07:22:57.944Z,16.70
2018-05-26T07:25:24.852Z,16.80
2018-05-26T07:27:51.822Z,16.80
2018-05-26T07:30:18.768Z,16.90
2018-05-26T07:32:46.091Z,17.00
2018-05-26T07:35:12.997Z,17.10
2018-05-26T07:37:39.885Z,17.20
2018-05-26T07:40:07.806Z,17.40
2018-05-26T07:42:34.713Z,17.40
2018-05-26T07:45:01.812Z,17.50
2018-05-26T07:47:28.740Z,17.60
2018-05-26T07:49:57.268Z,17.70
2018-05-26T07:52:24.408Z,17.80
2018-05-26T07:54:51.282Z,17.90
2018-05-26T07:57:18.232Z,17.90
2018-05-26T07:59:45.135Z,17.90
2018-05-26T08:02:11.996Z,18.00
2018-05-26T08:04:39.611Z,18.10
2018-05-26T08:07:06.474Z,18.10
2018-05-26T08:09:33.340Z,18.20
2018-05-26T08:12:01.001Z,18.20
2018-05-26T08:14:28.613Z,18.30
2018-05-26T08:16:55.620Z,18.30
2018-05-26T08:19:22.516Z,18.50
2018-05-26T08:21:50.157Z,18.90
2018-05-26T08:24:17.163Z,18.90
2018-05-26T08:26:44.037Z,19.10
2018-05-26T08:29:10.956Z,19.40
2018-05-26T08:31:38.723Z,20.00
2018-05-26T08:34:05.602Z,20.00
2018-05-26T08:36:32.468Z,20.30
2018-05-26T08:38:59.349Z,20.60
2018-05-26T08:41:27.520Z,20.90
2018-05-26T08:43:54.916Z,20.90
2018-05-26T08:46:22.901Z,21.20
2018-05-26T08:48:50.791Z,21.20
2018-05-26T08:51:18.855Z,21.30
2018-05-26T08:53:46.538Z,21.40
2018-05-26T08:56:14.847Z,21.70
2018-05-26T08:58:42.345Z,21.70
2018-05-26T09:01:09.514Z,21.80
2018-05-26T09:03:37.751Z,22.10
2018-05-26T09:06:05.081Z,22.10
2018-05-26T09:08:32.875Z,22.20
2018-05-26T09:11:01.359Z,22.30
2018-05-26T09:13:29.899Z,22.30
2018-05-26T09:15:57.245Z,22.40
2018-05-26T09:18:24.467Z,22.60
2018-05-26T09:20:52.580Z,22.80
2018-05-26T09:23:19.945Z,22.90
2018-05-26T09:25:51.575Z,23.10
2018-05-26T09:28:19.247Z,23.30
2018-05-26T09:30:46.510Z,23.40
2018-05-26T09:33:15.394Z,23.60
2018-05-26T09:35:42.453Z,23.80
2018-05-26T09:38:09.748Z,23.90
2018-05-26T09:40:36.807Z,24.20
2018-05-26T09:43:03.673Z,24.30
2018-05-26T09:45:30.544Z,24.40
2018-05-26T09:47:57.432Z,24.70
2018-05-26T09:50:24.292Z,24.70
2018-05-26T09:52:51.160Z,24.70
2018-05-26T09:55:18.391Z,24.60
2018-05-26T09:57:45.443Z,24.70
2018-05-26T10:00:13.357Z,24.90
2018-05-26T10:02:40.248Z,25.10
2018-05-26T10:05:07.844Z,25.60
2018-05-26T10:07:34.712Z,25.60
2018-05-26T10:10:01.640Z,25.70
2018-05-26T10:12:28.497Z,25.80
2018-05-26T10:14:55.390Z,25.80
2018-05-26T10:17:22.991Z,25.60
2018-05-26T10:19:50.218Z,25.60
2018-05-26T10:22:17.077Z,25.40
2018-05-26T10:24:44.008Z,25.30
2018-05-26T10:27:11.356Z,25.10
2018-05-26T10:29:38.345Z,25.10
2018-05-26T10:32:05.209Z,25.10
2018-05-26T10:34:32.088Z,25.00
2018-05-26T10:36:58.952Z,25.20
2018-05-26T10:39:25.826Z,25.40
2018-05-26T10:42:02.894Z,25.70
2018-05-26T10:44:43.988Z,26.10
2018-05-26T10:47:10.996Z,26.40
2018-05-26T10:49:37.976Z,26.50
2018-05-26T10:52:06.380Z,26.80
2018-05-26T10:54:33.343Z,26.80
2018-05-26T10:57:00.241Z,26.80
2018-05-26T10:59:27.148Z,26.80
2018-05-26T11:01:54.048Z,26.70
2018-05-26T11:04:20.984Z,26.50
2018-05-26T11:06:47.856Z,26.40
2018-05-26T11:09:15.607Z,26.10
2018-05-26T11:11:44.759Z,26.00
2018-05-26T11:14:11.649Z,26.00
2018-05-26T11:16:38.675Z,26.00
2018-05-26T11:19:05.567Z,25.80
2018-05-26T11:21:32.437Z,25.80
2018-05-26T11:24:02.150Z,26.30
2018-05-26T11:26:30.543Z,26.50
2018-05-26T11:28:57.464Z,26.50
2018-05-26T11:31:24.364Z,26.70
2018-05-26T11:33:54.273Z,27.10
2018-05-26T11:36:21.926Z,27.20
2018-05-26T11:38:48.789Z,27.20
2018-05-26T11:41:15.667Z,27.30
2018-05-26T11:43:43.311Z,27.40
2018-05-26T11:46:12.984Z,27.10
2018-05-26T11:48:39.864Z,27.00
2018-05-26T11:51:08.784Z,26.90
2018-05-26T11:53:37.249Z,27.10
2018-05-26T11:56:05.308Z,27.40
2018-05-26T11:58:33.029Z,27.60
2018-05-26T12:01:02.668Z,27.80
2018-05-26T12:03:35.020Z,27.90
2018-05-26T12:06:02.854Z,28.10
2018-05-26T12:08:32.161Z,28.10
2018-05-26T12:11:00.969Z,28.20
2018-05-26T12:13:27.877Z,28.20
2018-05-26T12:15:54.740Z,28.20
2018-05-26T12:18:31.374Z,28.40
2018-05-26T12:20:59.685Z,28.50
2018-05-26T12:23:37.669Z,28.20
2018-05-26T12:26:19.627Z,28.00
2018-05-26T12:28:47.668Z,27.80
2018-05-26T12:31:14.599Z,27.60
2018-05-26T12:33:41.460Z,27.50
2018-05-26T12:36:08.348Z,27.50
2018-05-26T12:38:40.048Z,27.50
2018-05-26T12:41:08.199Z,27.50
2018-05-26T12:43:35.076Z,27.60
2018-05-26T12:46:01.971Z,27.50
2018-05-26T12:48:28.911Z,27.40
2018-05-26T12:50:55.808Z,27.30
2018-05-26T12:53:42.510Z,27.20
2018-05-26T12:56:09.383Z,27.10
2018-05-26T12:58:37.082Z,27.10
2018-05-26T13:01:04.052Z,27.10
2018-05-26T13:03:30.938Z,27.10
2018-05-26T13:05:59.320Z,27.10
2018-05-26T13:08:27.542Z,27.10
2018-05-26T13:10:54.594Z,27.20
2018-05-26T13:13:27.695Z,27.20
2018-05-26T13:15:55.445Z,27.20
2018-05-26T13:18:22.377Z,27.20
2018-05-26T13:20:49.241Z,27.30
2018-05-26T13:23:16.140Z,27.20
2018-05-26T13:25:43.599Z,27.30
2018-05-26T13:28:12.390Z,27.20
2018-05-26T13:30:40.158Z,27.20
2018-05-26T13:33:08.057Z,27.10
2018-05-26T13:35:34.924Z,27.00
2018-05-26T13:38:04.415Z,27.00
2018-05-26T13:40:31.373Z,27.00
2018-05-26T13:42:58.972Z,27.10
2018-05-26T13:45:29.682Z,27.10
2018-05-26T13:47:57.428Z,27.10
2018-05-26T13:50:25.980Z,27.40
2018-05-26T13:52:53.621Z,27.30
2018-05-26T13:55:20.861Z,27.30
2018-05-26T13:57:47.700Z,27.40
2018-05-26T14:00:14.573Z,27.50
2018-05-26T14:02:42.004Z,27.40
2018-05-26T14:05:11.052Z,27.40
2018-05-26T14:07:45.990Z,27.30
2018-05-26T14:10:13.597Z,27.10
2018-05-26T14:12:48.213Z,27.10
2018-05-26T14:15:18.356Z,27.00
2018-05-26T14:17:47.938Z,27.00
2018-05-26T14:20:21.473Z,27.00
2018-05-26T14:22:52.264Z,27.00
2018-05-26T14:25:22.700Z,27.00
2018-05-26T14:27:51.128Z,27.00
2018-05-26T14:30:18.020Z,27.00
2018-05-26T14:32:46.134Z,27.00
2018-05-26T14:35:16.956Z,27.10
2018-05-26T14:37:43.818Z,27.10
2018-05-26T14:40:10.717Z,27.10
2018-05-26T14:42:37.658Z,27.10
2018-05-26T14:45:04.556Z,27.00
2018-05-26T14:47:31.424Z,26.90
2018-05-26T14:50:07.785Z,26.80
2018-05-26T14:52:35.829Z,26.70
2018-05-26T14:55:02.800Z,26.70
2018-05-26T15:00:28.795Z,26.40
2018-05-26T15:02:56.815Z,26.40
2018-05-26T15:05:23.676Z,26.30
2018-05-26T15:07:50.796Z,26.30
2018-05-26T15:10:17.669Z,26.20
2018-05-26T15:12:44.612Z,26.30
2018-05-26T15:15:12.242Z,26.20
2018-05-26T15:17:39.140Z,26.20
2018-05-26T15:20:07.281Z,26.20
2018-05-26T15:22:34.187Z,26.10
2018-05-26T15:25:01.064Z,26.10
2018-05-26T15:27:27.932Z,26.10
2018-05-26T15:29:54.810Z,26.10
2018-05-26T15:32:21.681Z,26.00
2018-05-26T15:34:48.563Z,26.00
2018-05-26T15:37:15.452Z,26.00
2018-05-26T15:39:42.373Z,26.00
2018-05-26T15:42:09.255Z,26.00
2018-05-26T15:44:36.124Z,26.00
2018-05-26T15:47:02.999Z,25.90
2018-05-26T15:49:29.903Z,25.90
2018-05-26T15:51:57.525Z,26.00
2018-05-26T15:54:24.420Z,26.00
2018-05-26T15:56:53.048Z,26.00
2018-05-26T15:59:23.576Z,26.00
2018-05-26T16:01:53.392Z,26.00
2018-05-26T16:04:20.361Z,26.00
2018-05-26T16:06:47.977Z,26.00
2018-05-26T16:09:14.853Z,26.00
2018-05-26T16:11:41.728Z,26.00
2018-05-26T16:14:08.676Z,25.90
2018-05-26T16:16:35.540Z,25.90
2018-05-26T16:19:02.570Z,25.90
2018-05-26T16:21:29.488Z,25.80
2018-05-26T16:23:56.445Z,25.80
2018-05-26T16:26:24.072Z,25.70
2018-05-26T16:28:50.993Z,25.70
2018-05-26T16:31:17.884Z,25.70
2018-05-26T16:33:45.504Z,25.60
2018-05-26T16:36:12.654Z,25.60
2018-05-26T16:38:39.520Z,25.50
2018-05-26T16:41:06.432Z,25.50
2018-05-26T16:43:33.318Z,25.40
2018-05-26T16:46:01.473Z,25.40
2018-05-26T16:48:28.324Z,25.40
2018-05-26T16:50:55.232Z,25.30
2018-05-26T16:53:22.557Z,25.30
2018-05-26T16:55:49.452Z,25.30
2018-05-26T16:58:16.378Z,25.30
2018-05-26T17:00:44.112Z,25.20
2018-05-26T17:03:11.004Z,25.30
2018-05-26T17:05:37.916Z,25.20
2018-05-26T17:08:04.782Z,25.20
2018-05-26T17:10:32.325Z,25.20
2018-05-26T17:12:59.215Z,25.20
2018-05-26T17:15:26.096Z,25.20
2018-05-26T17:17:54.025Z,25.20
2018-05-26T17:20:21.281Z,25.10
2018-05-26T17:22:48.204Z,25.00
2018-05-26T17:25:15.073Z,25.00
2018-05-26T17:27:41.945Z,24.80
2018-05-26T17:30:08.905Z,24.80
2018-05-26T17:32:35.774Z,24.80
2018-05-26T17:35:03.107Z,24.70
2018-05-26T17:37:30.083Z,24.70
2018-05-26T17:39:56.976Z,24.60
2018-05-26T17:42:23.892Z,24.60
2018-05-26T17:44:50.802Z,24.50
2018-05-26T17:47:17.714Z,24.50
2018-05-26T17:49:44.616Z,24.50
2018-05-26T17:52:11.498Z,24.40
2018-05-26T17:54:38.356Z,24.40
2018-05-26T17:57:05.252Z,24.40
2018-05-26T17:59:32.129Z,24.40
2018-05-26T18:01:59.056Z,24.30
2018-05-26T18:04:25.937Z,24.20
2018-05-26T18:06:52.820Z,24.20
2018-05-26T18:09:19.750Z,24.10
2018-05-26T18:11:46.628Z,24.00
2018-05-26T18:14:13.500Z,24.00
2018-05-26T18:16:40.392Z,23.90
2018-05-26T18:19:07.256Z,23.80
2018-05-26T18:21:34.952Z,23.70
2018-05-26T18:24:01.825Z,23.70
2018-05-26T18:26:28.716Z,23.70
2018-05-26T18:28:55.597Z,23.60
2018-05-26T18:31:25.113Z,23.50
2018-05-26T18:33:52.945Z,23.40
2018-05-26T18:36:19.837Z,23.30
2018-05-26T18:38:46.712Z,23.30
2018-05-26T18:41:14.506Z,23.10
2018-05-26T18:43:41.416Z,23.10
2018-05-26T18:46:08.357Z,23.00
2018-05-26T18:48:35.324Z,22.90
2018-05-26T18:51:02.296Z,22.80
2018-05-26T18:53:30.521Z,22.70
2018-05-26T18:55:59.031Z,22.60
2018-05-26T18:58:26.640Z,22.60
2018-05-26T19:00:53.681Z,22.70
2018-05-26T19:03:20.654Z,22.50
2018-05-26T19:05:49.317Z,22.30
2018-05-26T19:08:16.304Z,22.20
2018-05-26T19:10:43.233Z,22.20
2018-05-26T19:13:10.148Z,22.10
2018-05-26T19:15:37.082Z,22.10
2018-05-26T19:18:04.055Z,22.00
2018-05-26T19:20:31.848Z,21.90
2018-05-26T19:22:58.920Z,21.70
2018-05-26T19:25:25.925Z,21.60
2018-05-26T19:27:53.546Z,21.40
2018-05-26T19:30:20.446Z,21.40
2018-05-26T19:32:47.723Z,21.30
2018-05-26T19:35:14.742Z,21.20
2018-05-26T19:37:41.608Z,21.10
2018-05-26T19:40:08.564Z,20.90
2018-05-26T19:42:35.536Z,20.90
2018-05-26T19:45:02.502Z,20.70
2018-05-26T19:47:30.293Z,20.40
2018-05-26T19:49:57.301Z,20.40
2018-05-26T19:52:24.660Z,20.40
2018-05-26T19:54:51.649Z,20.20
2018-05-26T19:57:18.542Z,20.20
2018-05-26T19:59:45.427Z,20.20
2018-05-26T20:02:12.300Z,20.10
2018-05-26T20:04:39.225Z,19.90
2018-05-26T20:07:06.126Z,19.90
2018-05-26T20:09:33.105Z,19.90
2018-05-26T20:12:00.169Z,19.90
2018-05-26T20:14:27.105Z,19.80
2018-05-26T20:16:54.021Z,19.80
2018-05-26T20:19:21.705Z,19.70
2018-05-26T20:21:48.904Z,19.70
2018-05-26T20:24:15.843Z,19.60
2018-05-26T20:26:43.606Z,19.40
2018-05-26T20:29:10.531Z,19.50
2018-05-26T20:31:37.633Z,19.30
2018-05-26T20:34:04.536Z,19.20
2018-05-26T20:36:31.412Z,19.20
2018-05-26T20:38:58.284Z,19.20
2018-05-26T20:41:25.208Z,19.10
2018-05-26T20:43:53.233Z,19.00
2018-05-26T20:46:20.561Z,19.00
2018-05-26T20:48:47.497Z,19.00
2018-05-26T20:51:14.363Z,19.00
2018-05-26T20:53:41.279Z,18.90
2018-05-26T20:56:08.168Z,18.90
2018-05-26T20:58:35.040Z,18.90
2018-05-26T21:01:01.953Z,18.90
2018-05-26T21:03:29.035Z,18.80
2018-05-26T21:05:56.267Z,18.70
2018-05-26T21:08:23.899Z,18.70
2018-05-26T21:10:50.766Z,18.70
2018-05-26T21:13:17.661Z,18.50
2018-05-26T21:15:44.603Z,18.50
2018-05-26T21:18:11.601Z,18.40
2018-05-26T21:20:38.485Z,18.40
2018-05-26T21:23:05.349Z,18.40
2018-05-26T21:25:32.354Z,18.40
2018-05-26T21:27:59.888Z,18.50
2018-05-26T21:30:27.544Z,18.50
2018-05-26T21:32:54.408Z,18.50
2018-05-26T21:35:21.353Z,18.50
2018-05-26T21:37:48.268Z,18.50
2018-05-26T21:40:15.180Z,18.40
2018-05-26T21:42:42.349Z,18.40
2018-05-26T21:45:09.275Z,18.30
2018-05-26T21:47:36.244Z,18.30
2018-05-26T21:50:03.167Z,18.30
2018-05-26T21:52:30.105Z,18.20
2018-05-26T21:54:57.010Z,18.20
2018-05-26T21:57:23.884Z,18.20
2018-05-26T21:59:51.489Z,18.00
2018-05-26T22:02:18.370Z,18.00
2018-05-26T22:04:45.235Z,18.10
2018-05-26T22:07:12.113Z,18.00
2018-05-26T22:09:38.996Z,18.00
2018-05-26T22:12:12.427Z,18.10
2018-05-26T22:14:42.667Z,18.10
2018-05-26T22:17:16.468Z,18.00
2018-05-26T22:19:47.777Z,17.90
2018-05-26T22:22:20.284Z,17.90
2018-05-26T22:27:26.668Z,17.80
2018-05-26T22:29:58.434Z,17.70
2018-05-26T22:32:33.077Z,17.70
2018-05-26T22:35:02.923Z,17.60
2018-05-26T22:37:35.673Z,17.60
2018-05-26T22:40:06.115Z,17.60
2018-05-26T22:42:37.200Z,17.60
2018-05-26T22:45:12.453Z,17.60
2018-05-26T22:47:42.551Z,17.60
2018-05-26T22:50:11.468Z,17.50
2018-05-26T22:52:41.894Z,17.50
2018-05-26T22:57:45.546Z,17.50
2018-05-26T23:00:17.463Z,17.50
2018-05-26T23:02:50.892Z,17.40
2018-05-26T23:05:17.849Z,17.40
2018-05-26T23:07:44.841Z,17.40
2018-05-26T23:10:13.952Z,17.30
2018-05-26T23:12:40.910Z,17.30
2018-05-26T23:15:07.833Z,17.30
2018-05-26T23:17:35.388Z,17.30
2018-05-26T23:20:11.479Z,17.20
2018-05-26T23:22:38.446Z,17.10
2018-05-26T23:25:05.846Z,17.10
2018-05-26T23:27:32.757Z,17.10
2018-05-26T23:30:06.261Z,17.10
2018-05-26T23:32:36.035Z,17.10
2018-05-26T23:35:07.112Z,17.10
2018-05-26T23:37:34.007Z,17.10
2018-05-26T23:40:07.812Z,17.10
2018-05-26T23:42:39.695Z,17.00
2018-05-26T23:45:07.362Z,17.10
2018-05-26T23:47:35.366Z,17.10
2018-05-26T23:50:09.723Z,17.00
2018-05-26T23:52:44.324Z,17.00
2018-05-26T23:57:57.014Z,17.00
